Time;durP1;ratioP1;P1;durP2;ratioP2;P2;SDS_P1;SDS_P2;PMS_P1;PMS_P2;Temp;Humidity;BMP_temperature;BMP_pressure;BME280_temperature;BME280_humidity;BME280_pressure;Samples;Min_cycle;Max_cycle;Signal;HPM_P1;HPM_P2
2023/10/03 00:03:00;;;;;;;31.57;21.67;;;;;;;;;;2619984;54;20446;-84
2023/10/03 00:08:30;;;;;;;29.27;19.50;;;;;;;;;;2619203;54;20501;-87
2023/10/03 00:14:00;;;;;;;25.37;19.80;;;;;;;;;;2625415;54;20506;-84
2023/10/03 00:19:30;;;;;;;27.13;19.93;;;;;;;;;;2627220;54;20378;-85
2023/10/03 00:25:01;;;;;;;26.73;19.77;;;;;;;;;;2626425;54;20481;-83
2023/10/03 00:30:30;;;;;;;27.40;20.53;;;;;;;;;;2627037;54;20395;-84
2023/10/03 00:36:00;;;;;;;27.80;20.30;;;;;;;;;;2628611;54;20399;-83
2023/10/03 00:41:30;;;;;;;27.63;20.30;;;;;;;;;;2626087;54;20363;-85
2023/10/03 00:47:00;;;;;;;24.50;19.33;;;;;;;;;;2626815;46;20488;-84
2023/10/03 00:52:30;;;;;;;20.53;17.73;;;;;;;;;;2626820;54;20796;-83
2023/10/03 00:58:07;;;;;;;25.37;20.83;;;;;;;;;;2627641;54;20381;-85
2023/10/03 01:07:14;;;;;;;27.33;19.17;;;;;;;;;;2628404;54;20495;-85
2023/10/03 01:12:48;;;;;;;25.27;19.50;;;;;;;;;;2616145;54;20451;-84
2023/10/03 01:18:20;;;;;;;27.93;20.77;;;;;;;;;;2614532;54;21072;-84
2023/10/03 01:23:50;;;;;;;22.20;19.27;;;;;;;;;;2615259;54;20404;-83
2023/10/03 01:29:20;;;;;;;22.53;19.07;;;;;;;;;;2615841;54;20387;-81
2023/10/03 01:34:50;;;;;;;26.77;20.40;;;;;;;;;;2616209;54;20395;-83
2023/10/03 01:40:20;;;;;;;21.70;18.57;;;;;;;;;;2615347;54;20387;-82
2023/10/03 01:45:50;;;;;;;26.77;21.00;;;;;;;;;;2613799;54;20391;-82
2023/10/03 01:51:21;;;;;;;25.20;19.57;;;;;;;;;;2614491;54;20451;-86
2023/10/03 01:56:50;;;;;;;27.03;19.10;;;;;;;;;;2614816;54;20508;-86
2023/10/03 02:02:20;;;;;;;23.00;18.70;;;;;;;;;;2614954;54;20387;-86
2023/10/03 02:13:41;;;;;;;22.20;18.27;;;;;;;;;;2613896;54;20512;-81
2023/10/03 02:19:10;;;;;;;23.87;18.30;;;;;;;;;;2614070;54;21942;-81
2023/10/03 02:24:39;;;;;;;20.43;18.33;;;;;;;;;;2614104;54;20503;-81
2023/10/03 02:30:12;;;;;;;19.83;17.83;;;;;;;;;;2615111;39;20852;-83
2023/10/03 02:35:42;;;;;;;21.43;18.17;;;;;;;;;;2614483;54;20391;-82
2023/10/03 02:41:14;;;;;;;24.87;18.23;;;;;;;;;;2614471;54;20383;-82
2023/10/03 02:43:58;;;;;;;22.00;17.87;;;;;;;;;;2612598;54;20463;-81
2023/10/03 02:46:26;;;;;;;21.00;18.30;;;;;;;;;;2612675;54;20432;-81
2023/10/03 02:51:59;;;;;;;29.17;19.13;;;;;;;;;;2613127;54;20394;-81
2023/10/03 02:57:29;;;;;;;19.90;17.80;;;;;;;;;;2614427;54;20386;-82
2023/10/03 03:09:07;;;;;;;25.33;19.50;;;;;;;;;;2616135;54;20502;-85
2023/10/03 03:14:36;;;;;;;23.40;19.33;;;;;;;;;;2614528;54;20406;-86
2023/10/03 03:20:10;;;;;;;20.10;18.00;;;;;;;;;;2614015;54;20394;-86
2023/10/03 03:25:43;;;;;;;23.90;18.50;;;;;;;;;;2613980;54;20403;-86
2023/10/03 03:37:21;;;;;;;20.30;18.20;;;;;;;;;;2614895;54;20394;-87
2023/10/03 03:42:52;;;;;;;22.03;19.70;;;;;;;;;;2616854;39;20741;-85
2023/10/03 03:48:23;;;;;;;19.97;17.90;;;;;;;;;;2617809;39;20812;-86
2023/10/03 03:53:53;;;;;;;20.43;18.53;;;;;;;;;;2616775;39;20771;-85
2023/10/03 03:59:22;;;;;;;23.17;18.60;;;;;;;;;;2613533;39;20742;-86
2023/10/03 04:10:59;;;;;;;20.83;18.63;;;;;;;;;;2616648;54;20980;-86
2023/10/03 04:16:32;;;;;;;17.80;15.90;;;;;;;;;;2616450;54;20383;-81
2023/10/03 04:22:01;;;;;;;18.63;16.63;;;;;;;;;;2616677;54;20957;-82
2023/10/03 04:27:32;;;;;;;18.83;16.93;;;;;;;;;;2614359;54;20408;-81
2023/10/03 04:33:02;;;;;;;17.13;15.43;;;;;;;;;;2615745;54;20395;-83
2023/10/03 04:38:32;;;;;;;20.50;16.30;;;;;;;;;;2614265;54;20395;-85
2023/10/03 04:44:02;;;;;;;20.37;18.17;;;;;;;;;;2615295;54;20419;-87
2023/10/03 04:49:31;;;;;;;19.47;17.47;;;;;;;;;;2615239;54;20945;-87
2023/10/03 04:55:01;;;;;;;17.27;15.30;;;;;;;;;;2616343;54;20374;-88
2023/10/03 05:00:31;;;;;;;17.93;16.27;;;;;;;;;;2614092;54;20427;-85
2023/10/03 05:09:38;;;;;;;21.10;16.00;;;;;;;;;;2613424;54;20419;-86
2023/10/03 05:15:08;;;;;;;20.07;17.23;;;;;;;;;;2615145;54;20395;-86
2023/10/03 05:20:38;;;;;;;17.50;15.67;;;;;;;;;;2616247;54;20403;-86
2023/10/03 05:26:07;;;;;;;19.30;15.60;;;;;;;;;;2616263;39;21002;-82
2023/10/03 05:31:41;;;;;;;18.20;15.97;;;;;;;;;;2614135;54;20386;-81
2023/10/03 05:37:10;;;;;;;20.60;16.73;;;;;;;;;;2614078;54;20969;-81
2023/10/03 05:42:41;;;;;;;21.47;16.73;;;;;;;;;;2613458;54;20406;-83
2023/10/03 05:48:11;;;;;;;17.33;14.57;;;;;;;;;;2613843;54;20379;-80
2023/10/03 05:53:41;;;;;;;16.97;13.97;;;;;;;;;;2614753;54;20378;-81
2023/10/03 05:59:11;;;;;;;20.07;16.30;;;;;;;;;;2616026;54;20396;-82
2023/10/03 06:04:40;;;;;;;17.00;14.40;;;;;;;;;;2616373;54;20921;-81
2023/10/03 06:10:11;;;;;;;16.77;14.53;;;;;;;;;;2615214;54;20442;-81
2023/10/03 06:15:42;;;;;;;17.17;15.10;;;;;;;;;;2616027;54;20395;-81
2023/10/03 06:21:11;;;;;;;16.50;14.90;;;;;;;;;;2615283;47;20398;-79
2023/10/03 06:26:44;;;;;;;15.20;13.63;;;;;;;;;;2615736;54;20363;-80
2023/10/03 06:32:14;;;;;;;14.47;13.07;;;;;;;;;;2614750;54;20407;-81
2023/10/03 06:37:43;;;;;;;16.03;12.47;;;;;;;;;;2616180;54;20475;-86
2023/10/03 06:43:13;;;;;;;14.00;12.60;;;;;;;;;;2618832;54;20390;-86
2023/10/03 06:48:47;;;;;;;16.67;13.33;;;;;;;;;;2620227;54;20395;-85
2023/10/03 06:54:16;;;;;;;16.10;12.30;;;;;;;;;;2617310;54;20390;-81
2023/10/03 06:59:46;;;;;;;12.20;9.90;;;;;;;;;;2617243;54;20447;-81
2023/10/03 07:05:16;;;;;;;17.97;11.27;;;;;;;;;;2617172;54;20387;-81
2023/10/03 07:16:52;;;;;;;12.80;11.00;;;;;;;;;;2618217;39;20832;-81
2023/10/03 07:22:22;;;;;;;17.00;12.40;;;;;;;;;;2617455;54;20383;-80
2023/10/03 07:27:52;;;;;;;10.50;9.50;;;;;;;;;;2617059;54;20930;-81
2023/10/03 07:33:22;;;;;;;10.83;9.73;;;;;;;;;;2616783;54;20411;-80
2023/10/03 07:38:52;;;;;;;10.07;9.07;;;;;;;;;;2617087;54;20926;-79
2023/10/03 07:44:25;;;;;;;11.50;9.37;;;;;;;;;;2624559;54;20414;-86
2023/10/03 07:49:58;;;;;;;11.47;10.47;;;;;;;;;;2620657;54;20435;-85
2023/10/03 07:55:27;;;;;;;12.40;8.80;;;;;;;;;;2620844;54;20427;-87
2023/10/03 08:00:57;;;;;;;12.67;10.20;;;;;;;;;;2621036;39;20475;-87
2023/10/03 08:06:33;;;;;;;10.77;9.87;;;;;;;;;;2617063;54;20427;-81
2023/10/03 08:15:31;;;;;;;9.13;8.43;;;;;;;;;;2616537;54;20973;-79
2023/10/03 08:21:03;;;;;;;9.73;8.77;;;;;;;;;;2616849;54;20442;-81
2023/10/03 08:26:33;;;;;;;9.67;8.77;;;;;;;;;;2616471;54;20940;-81
2023/10/03 08:32:04;;;;;;;12.27;8.67;;;;;;;;;;2616426;54;20969;-82
2023/10/03 08:37:38;;;;;;;13.17;8.77;;;;;;;;;;2615351;39;20899;-80
2023/10/03 08:43:09;;;;;;;8.97;8.07;;;;;;;;;;2617256;54;20414;-81
2023/10/03 08:48:43;;;;;;;8.97;8.27;;;;;;;;;;2616871;54;20842;-81
2023/10/03 08:54:13;;;;;;;10.53;9.63;;;;;;;;;;2616137;54;20403;-79
2023/10/03 08:59:46;;;;;;;9.30;8.33;;;;;;;;;;2617050;54;20390;-80
2023/10/03 09:05:20;;;;;;;8.93;8.03;;;;;;;;;;2617200;39;20798;-80
2023/10/03 09:10:52;;;;;;;11.57;9.67;;;;;;;;;;2616813;54;20391;-80
2023/10/03 09:16:23;;;;;;;9.07;7.70;;;;;;;;;;2617371;54;20499;-81
2023/10/03 09:21:53;;;;;;;9.07;8.17;;;;;;;;;;2617426;54;20403;-82
2023/10/03 09:27:30;;;;;;;12.17;7.90;;;;;;;;;;2617850;54;20375;-81
2023/10/03 09:33:00;;;;;;;8.63;7.67;;;;;;;;;;2616677;54;20467;-80
2023/10/03 09:38:42;;;;;;;8.90;8.00;;;;;;;;;;2615599;54;21020;-81
2023/10/03 09:44:11;;;;;;;9.30;8.17;;;;;;;;;;2615757;39;20772;-80
2023/10/03 09:49:41;;;;;;;8.40;7.37;;;;;;;;;;2615391;54;21039;-80
2023/10/03 09:55:40;;;;;;;8.40;7.70;;;;;;;;;;2615222;54;20394;-80
2023/10/03 10:01:03;;;;;;;11.17;7.83;;;;;;;;;;2615624;54;20383;-80
2023/10/03 10:06:41;;;;;;;9.30;8.07;;;;;;;;;;2615390;54;20415;-81
2023/10/03 10:15:32;;;;;;;11.80;8.67;;;;;;;;;;2618277;39;20895;-81
2023/10/03 10:27:21;;;;;;;10.47;7.87;;;;;;;;;;2615829;54;20435;-82
2023/10/03 10:33:09;;;;;;;11.93;9.80;;;;;;;;;;2617026;54;20386;-83
2023/10/03 10:38:42;;;;;;;13.30;11.37;;;;;;;;;;2623074;39;20749;-82
2023/10/03 10:44:21;;;;;;;12.03;10.77;;;;;;;;;;2621104;54;20383;-83
2023/10/03 10:49:58;;;;;;;15.13;9.97;;;;;;;;;;2623779;54;20388;-84
2023/10/03 10:55:27;;;;;;;16.27;11.20;;;;;;;;;;2622885;54;21366;-83
2023/10/03 11:00:58;;;;;;;15.83;11.40;;;;;;;;;;2620901;39;20894;-82
2023/10/03 11:06:28;;;;;;;18.37;12.40;;;;;;;;;;2620261;54;20382;-83
2023/10/03 11:11:57;;;;;;;17.17;10.83;;;;;;;;;;2622016;39;20806;-82
2023/10/03 11:21:08;;;;;;;15.20;11.53;;;;;;;;;;2628528;54;20500;-82
2023/10/03 11:26:45;;;;;;;9.63;6.10;;;;;;;;;;2627830;54;20386;-82
2023/10/03 11:38:21;;;;;;;3.13;2.00;;;;;;;;;;2620302;54;20391;-83
2023/10/03 11:43:51;;;;;;;5.10;2.20;;;;;;;;;;2621424;54;20407;-84
2023/10/03 11:49:21;;;;;;;2.70;1.90;;;;;;;;;;2617587;54;20412;-82
2023/10/03 11:54:50;;;;;;;3.80;1.80;;;;;;;;;;2617257;54;20403;-84
2023/10/03 12:00:24;;;;;;;3.40;2.17;;;;;;;;;;2615810;54;20398;-82
2023/10/03 12:05:56;;;;;;;2.90;1.83;;;;;;;;;;2616940;39;20658;-82
2023/10/03 12:11:26;;;;;;;4.17;1.73;;;;;;;;;;2617271;54;20407;-83
2023/10/03 12:23:04;;;;;;;3.90;1.80;;;;;;;;;;2616691;54;20383;-84
2023/10/03 12:28:35;;;;;;;2.67;1.60;;;;;;;;;;2615950;39;20729;-84
2023/10/03 12:34:04;;;;;;;3.77;2.00;;;;;;;;;;2617948;54;20391;-83
2023/10/03 12:39:35;;;;;;;1.83;1.40;;;;;;;;;;2616279;54;20386;-81
2023/10/03 12:45:05;;;;;;;2.10;1.70;;;;;;;;;;2614822;54;20382;-81
2023/10/03 12:50:35;;;;;;;2.77;1.80;;;;;;;;;;2616218;54;20479;-80
2023/10/03 12:56:08;;;;;;;2.90;2.17;;;;;;;;;;2616789;39;20519;-80
2023/10/03 13:01:38;;;;;;;5.63;2.70;;;;;;;;;;2616176;54;20407;-81
2023/10/03 13:07:09;;;;;;;3.77;2.00;;;;;;;;;;2615972;54;20407;-83
2023/10/03 13:12:42;;;;;;;2.90;1.87;;;;;;;;;;2617011;54;20382;-81
2023/10/03 13:21:52;;;;;;;3.50;1.60;;;;;;;;;;2616118;54;20431;-80
2023/10/03 13:27:22;;;;;;;6.23;1.73;;;;;;;;;;2615343;54;20925;-80
2023/10/03 13:32:53;;;;;;;3.60;2.00;;;;;;;;;;2616336;54;20440;-81
2023/10/03 13:38:23;;;;;;;3.17;2.40;;;;;;;;;;2616448;54;20379;-82
2023/10/03 13:43:52;;;;;;;2.23;1.53;;;;;;;;;;2616255;54;20926;-80
2023/10/03 13:49:24;;;;;;;4.17;1.63;;;;;;;;;;2613622;54;20412;-81
2023/10/03 13:54:59;;;;;;;3.80;1.93;;;;;;;;;;2616300;39;20783;-81
2023/10/03 14:00:35;;;;;;;4.43;2.50;;;;;;;;;;2616225;54;20408;-82
2023/10/03 14:06:04;;;;;;;2.53;1.80;;;;;;;;;;2615906;54;20427;-82
2023/10/03 14:11:35;;;;;;;3.30;2.10;;;;;;;;;;2616595;54;20442;-82
2023/10/03 14:17:04;;;;;;;3.73;1.93;;;;;;;;;;2616800;39;20709;-83
2023/10/03 14:22:36;;;;;;;4.20;3.80;;;;;;;;;;2616191;54;20402;-83
2023/10/03 14:28:06;;;;;;;2.00;1.30;;;;;;;;;;2616410;54;20444;-84
2023/10/03 14:33:36;;;;;;;1.90;1.20;;;;;;;;;;2615927;54;20404;-83
2023/10/03 14:39:12;;;;;;;2.57;1.10;;;;;;;;;;2615321;54;20415;-82
2023/10/03 14:44:42;;;;;;;2.67;1.27;;;;;;;;;;2615513;54;20404;-80
2023/10/03 14:50:12;;;;;;;2.20;1.20;;;;;;;;;;2616840;46;20463;-82
2023/10/03 14:55:42;;;;;;;4.60;2.70;;;;;;;;;;2617037;31;20859;-81
2023/10/03 15:01:12;;;;;;;7.20;3.83;;;;;;;;;;2616433;54;20390;-83
2023/10/03 15:06:42;;;;;;;4.97;4.13;;;;;;;;;;2617545;54;20395;-80
2023/10/03 15:12:12;;;;;;;7.20;4.70;;;;;;;;;;2616582;54;20422;-82
2023/10/03 15:23:51;;;;;;;4.50;3.03;;;;;;;;;;2616313;54;20394;-83
2023/10/03 15:29:21;;;;;;;9.40;4.23;;;;;;;;;;2616429;54;20992;-81
2023/10/03 15:34:51;;;;;;;12.00;5.87;;;;;;;;;;2615988;54;20451;-82
2023/10/03 15:40:23;;;;;;;6.97;4.57;;;;;;;;;;2616345;54;20383;-81
2023/10/03 15:45:54;;;;;;;12.60;5.33;;;;;;;;;;2616217;54;20941;-82
2023/10/03 15:51:24;;;;;;;6.80;3.50;;;;;;;;;;2614776;54;20374;-82
2023/10/03 15:56:55;;;;;;;6.37;3.00;;;;;;;;;;2616425;39;20752;-82
2023/10/03 15:59:40;;;;;;;8.47;3.60;;;;;;;;;;2616577;54;20407;-83
2023/10/03 16:02:09;;;;;;;3.93;2.23;;;;;;;;;;2616593;54;20407;-82
2023/10/03 16:07:38;;;;;;;4.83;2.67;;;;;;;;;;2616796;54;20382;-82
2023/10/03 16:13:10;;;;;;;4.47;3.03;;;;;;;;;;2616572;54;20395;-81
2023/10/03 16:22:16;;;;;;;4.73;2.50;;;;;;;;;;2616043;54;20439;-81
2023/10/03 16:27:46;;;;;;;8.30;2.30;;;;;;;;;;2614928;54;21032;-81
2023/10/03 16:33:15;;;;;;;4.97;3.17;;;;;;;;;;2615382;54;20934;-80
2023/10/03 16:38:45;;;;;;;4.60;3.00;;;;;;;;;;2616165;54;20429;-80
2023/10/03 16:44:15;;;;;;;7.20;2.97;;;;;;;;;;2616565;54;20418;-84
2023/10/03 16:49:44;;;;;;;10.33;3.03;;;;;;;;;;2616449;54;20395;-79
2023/10/03 16:55:15;;;;;;;5.50;2.90;;;;;;;;;;2615739;54;20379;-81
2023/10/03 17:00:44;;;;;;;6.23;3.40;;;;;;;;;;2615236;54;20372;-84
2023/10/03 17:06:14;;;;;;;9.30;4.07;;;;;;;;;;2615334;54;20423;-82
2023/10/03 17:11:53;;;;;;;8.37;3.50;;;;;;;;;;2614305;54;20431;-81
2023/10/03 17:17:23;;;;;;;7.60;4.37;;;;;;;;;;2616275;39;20754;-82
2023/10/03 17:22:53;;;;;;;7.43;3.07;;;;;;;;;;2616927;39;20789;-81
2023/10/03 17:28:23;;;;;;;9.10;3.60;;;;;;;;;;2617162;54;21029;-81
2023/10/03 17:33:52;;;;;;;8.93;2.90;;;;;;;;;;2616386;54;20400;-81
2023/10/03 17:39:24;;;;;;;8.20;3.30;;;;;;;;;;2615961;54;20379;-81
2023/10/03 17:44:54;;;;;;;6.83;3.10;;;;;;;;;;2616413;54;20403;-81
2023/10/03 17:50:25;;;;;;;5.10;2.60;;;;;;;;;;2615259;54;20387;-81
2023/10/03 17:55:55;;;;;;;8.60;4.40;;;;;;;;;;2615763;54;20387;-81
2023/10/03 18:01:26;;;;;;;10.73;3.50;;;;;;;;;;2615881;54;20399;-83
2023/10/03 18:06:55;;;;;;;7.53;3.83;;;;;;;;;;2614129;31;20969;-81
2023/10/03 18:12:25;;;;;;;7.90;3.90;;;;;;;;;;2615620;54;20423;-82
2023/10/03 18:24:01;;;;;;;9.93;5.67;;;;;;;;;;2611921;54;20392;-82
2023/10/03 18:29:31;;;;;;;6.83;3.77;;;;;;;;;;2615166;31;20875;-83
2023/10/03 18:35:01;;;;;;;5.83;3.87;;;;;;;;;;2614482;47;20386;-82
2023/10/03 18:40:34;;;;;;;9.00;4.00;;;;;;;;;;2617405;39;20742;-84
2023/10/03 18:46:07;;;;;;;9.30;4.60;;;;;;;;;;2614555;54;20418;-84
2023/10/03 18:51:37;;;;;;;10.57;5.57;;;;;;;;;;2616734;54;20381;-84
2023/10/03 18:57:07;;;;;;;9.50;4.00;;;;;;;;;;2616758;54;20391;-84
2023/10/03 19:02:37;;;;;;;9.90;3.93;;;;;;;;;;2618369;46;20853;-85
2023/10/03 19:08:07;;;;;;;13.53;3.97;;;;;;;;;;2616618;54;20399;-83
2023/10/03 19:13:36;;;;;;;5.73;3.40;;;;;;;;;;2617158;54;20381;-84
2023/10/03 19:22:48;;;;;;;6.50;3.70;;;;;;;;;;2617234;54;20403;-83
2023/10/03 19:28:18;;;;;;;7.97;3.83;;;;;;;;;;2618200;54;21390;-84
2023/10/03 19:33:48;;;;;;;6.07;3.40;;;;;;;;;;2625079;54;20394;-84
2023/10/03 19:39:18;;;;;;;7.40;3.87;;;;;;;;;;2618114;54;20434;-85
2023/10/03 19:44:49;;;;;;;4.80;3.20;;;;;;;;;;2615847;39;20931;-84
2023/10/03 19:50:19;;;;;;;3.67;2.97;;;;;;;;;;2618663;54;20402;-87
2023/10/03 19:55:48;;;;;;;7.13;4.00;;;;;;;;;;2617832;54;20365;-84
2023/10/03 20:01:25;;;;;;;6.53;3.30;;;;;;;;;;2620106;54;20411;-84
2023/10/03 20:06:55;;;;;;;5.93;3.20;;;;;;;;;;2621846;54;20374;-84
2023/10/03 20:12:24;;;;;;;5.30;2.97;;;;;;;;;;2628240;54;20379;-83
2023/10/03 20:17:54;;;;;;;5.17;3.17;;;;;;;;;;2624570;54;20415;-81
2023/10/03 20:23:26;;;;;;;7.20;3.90;;;;;;;;;;2620421;54;20579;-82
2023/10/03 20:28:56;;;;;;;2.60;2.20;;;;;;;;;;2627153;54;20387;-84
2023/10/03 20:34:26;;;;;;;5.80;3.63;;;;;;;;;;2626539;54;21060;-82
2023/10/03 20:39:58;;;;;;;3.67;2.90;;;;;;;;;;2626824;54;20399;-82
2023/10/03 20:42:43;;;;;;;7.37;3.30;;;;;;;;;;2626335;47;20404;-82
2023/10/03 20:45:09;;;;;;;5.30;3.70;;;;;;;;;;2625992;54;20426;-83
2023/10/03 20:50:40;;;;;;;6.17;3.40;;;;;;;;;;2625917;54;20403;-82
2023/10/03 20:56:10;;;;;;;4.43;3.70;;;;;;;;;;2625031;54;20385;-82
2023/10/03 21:01:40;;;;;;;4.40;2.27;;;;;;;;;;2623686;54;20813;-83
2023/10/03 21:07:12;;;;;;;6.50;3.80;;;;;;;;;;2625942;54;20411;-83
2023/10/03 21:12:43;;;;;;;5.60;3.50;;;;;;;;;;2625990;54;20413;-83
2023/10/03 21:18:13;;;;;;;4.37;2.80;;;;;;;;;;2625662;54;20378;-83
2023/10/03 21:23:43;;;;;;;7.30;4.40;;;;;;;;;;2625828;54;20420;-82
2023/10/03 21:29:13;;;;;;;4.73;2.90;;;;;;;;;;2613484;39;21782;-82
2023/10/03 21:34:43;;;;;;;9.00;3.50;;;;;;;;;;2613139;54;20391;-82
2023/10/03 21:40:12;;;;;;;4.20;3.03;;;;;;;;;;2614972;54;20358;-81
2023/10/03 21:45:43;;;;;;;8.83;4.43;;;;;;;;;;2613247;54;20366;-82
2023/10/03 21:51:13;;;;;;;6.30;3.17;;;;;;;;;;2613497;54;20905;-82
2023/10/03 21:56:43;;;;;;;6.53;3.50;;;;;;;;;;2614310;54;20367;-82
2023/10/03 22:02:14;;;;;;;5.37;2.90;;;;;;;;;;2612632;54;20438;-82
2023/10/03 22:07:43;;;;;;;5.47;2.67;;;;;;;;;;2614467;54;20419;-82
2023/10/03 22:13:13;;;;;;;6.80;3.77;;;;;;;;;;2615115;54;20377;-81
2023/10/03 22:24:51;;;;;;;6.80;4.57;;;;;;;;;;2613203;54;20543;-81
2023/10/03 22:30:21;;;;;;;5.97;4.03;;;;;;;;;;2613215;54;20383;-81
2023/10/03 22:35:50;;;;;;;6.80;4.53;;;;;;;;;;2612089;54;20387;-82
2023/10/03 22:41:23;;;;;;;6.43;3.83;;;;;;;;;;2611619;54;20410;-81
2023/10/03 22:46:52;;;;;;;7.87;3.53;;;;;;;;;;2613221;54;20390;-81
2023/10/03 22:52:21;;;;;;;11.03;3.50;;;;;;;;;;2611970;54;20383;-83
2023/10/03 22:57:51;;;;;;;4.53;3.23;;;;;;;;;;2612224;54;20369;-82
2023/10/03 23:03:21;;;;;;;8.33;3.83;;;;;;;;;;2612134;54;20394;-81
2023/10/03 23:08:51;;;;;;;8.77;3.97;;;;;;;;;;2611634;54;20402;-82
2023/10/03 23:14:20;;;;;;;10.03;3.47;;;;;;;;;;2612510;54;20369;-81
2023/10/03 23:25:58;;;;;;;11.13;4.00;;;;;;;;;;2614738;54;20498;-82
2023/10/03 23:31:29;;;;;;;7.70;3.90;;;;;;;;;;2614219;54;20386;-82
2023/10/03 23:37:01;;;;;;;6.20;3.67;;;;;;;;;;2610784;54;20377;-82
2023/10/03 23:42:32;;;;;;;5.70;3.97;;;;;;;;;;2612799;54;21200;-82
2023/10/03 23:48:05;;;;;;;5.10;3.40;;;;;;;;;;2612158;54;20358;-81
2023/10/03 23:53:38;;;;;;;5.60;3.40;;;;;;;;;;2613167;46;20411;-81
2023/10/03 23:59:09;;;;;;;10.50;3.07;;;;;;;;;;2612799;54;20419;-82
